Time;durP1;ratioP1;P1;durP2;ratioP2;P2;SDS_P1;SDS_P2;PMS_P1;PMS_P2;Temp;Humidity;BMP_temperature;BMP_pressure;BME280_temperature;BME280_humidity;BME280_pressure;Samples;Min_cycle;Max_cycle;Signal;HPM_P1;HPM_P2
2024/03/02 00:02:14;;;;;;;;;;;;;;;26.49;39.80;93067.84;5070371;28;7294;-37
2024/03/02 00:04:40;;;;;;;;;;;;;;;26.48;39.27;93072.59;5053446;28;8950;-39
2024/03/02 00:07:14;;;;;;;;;;;;;;;26.49;39.51;93065.78;5055161;28;7289;-39
2024/03/02 00:09:40;;;;;;;;;;;;;;;26.49;39.25;93068.56;5057399;28;7341;-39
2024/03/02 00:12:07;;;;;;;;;;;;;;;26.51;39.95;93079.03;5062481;28;7054;-39
2024/03/02 00:14:35;;;;;;;;;;;;;;;26.49;39.21;93074.06;5077876;28;6998;-41
2024/03/02 00:17:01;;;;;;;;;;;;;;;26.49;39.20;93076.81;5072884;28;7306;-41
2024/03/02 00:19:27;;;;;;;;;;;;;;;26.49;39.71;93076.81;5054620;28;6993;-42
2024/03/02 00:22:01;;;;;;;;;;;;;;;26.51;39.10;93068.03;5055695;28;7315;-42
2024/03/02 00:24:33;;;;;;;;;;;;;;;26.53;38.81;93070.97;5060225;28;7289;-41
2024/03/02 00:27:01;;;;;;;;;;;;;;;26.50;39.38;93074.81;5072632;28;9818;-42
2024/03/02 00:29:29;;;;;;;;;;;;;;;26.50;39.32;93066.53;5049082;28;7176;-41
2024/03/02 00:32:23;;;;;;;;;;;;;;;26.50;39.03;93080.31;5071146;28;9185;-41
2024/03/02 00:34:52;;;;;;;;;;;;;;;26.49;38.97;93079.56;4970808;28;7075;-42
2024/03/02 00:37:18;;;;;;;;;;;;;;;26.49;38.87;93076.09;4962986;28;8242;-42
2024/03/02 00:39:49;;;;;;;;;;;;;;;26.49;38.71;93084.38;4948615;28;8724;-43
2024/03/02 00:42:17;;;;;;;;;;;;;;;26.48;38.97;93080.13;4950103;28;9450;-41
2024/03/02 00:44:47;;;;;;;;;;;;;;;26.46;38.59;93093.72;4970827;28;7293;-41
2024/03/02 00:47:13;;;;;;;;;;;;;;;26.44;39.01;93091.53;4959128;28;7024;-42
2024/03/02 00:49:39;;;;;;;;;;;;;;;26.47;39.18;93095.22;4958019;28;7177;-41
2024/03/02 00:52:09;;;;;;;;;;;;;;;26.47;39.05;93095.22;4960061;28;7020;-41
2024/03/02 00:54:37;;;;;;;;;;;;;;;26.47;39.18;93086.94;4971130;28;7111;-42
2024/03/02 00:57:04;;;;;;;;;;;;;;;26.45;38.92;93087.47;4980203;28;9169;-44
2024/03/02 00:59:31;;;;;;;;;;;;;;;26.47;38.91;93084.19;4962036;28;7141;-41
2024/03/02 01:01:57;;;;;;;;;;;;;;;26.46;39.18;93080.69;4973748;28;7148;-42
2024/03/02 01:04:34;;;;;;;;;;;;;;;26.46;38.69;93082.69;4974583;28;9076;-41
2024/03/02 01:07:00;;;;;;;;;;;;;;;26.47;39.10;93081.44;4963240;28;9275;-41
2024/03/02 01:09:47;;;;;;;;;;;;;;;26.48;38.95;93082.88;4963140;28;6974;-41
2024/03/02 01:12:45;;;;;;;;;;;;;;;26.47;39.26;93079.38;5031174;28;9299;-42
2024/03/02 01:15:41;;;;;;;;;;;;;;;26.46;39.45;93079.94;5012789;28;7303;-43
2024/03/02 01:18:17;;;;;;;;;;;;;;;26.45;39.06;93081.22;5007543;28;7348;-41
2024/03/02 01:20:45;;;;;;;;;;;;;;;26.44;38.98;93086.03;4997178;28;7311;-41
2024/03/02 01:23:16;;;;;;;;;;;;;;;26.45;39.03;93086.72;5013946;28;7443;-41
2024/03/02 01:25:42;;;;;;;;;;;;;;;26.45;38.87;93083.97;5016003;28;7029;-39
2024/03/02 01:28:12;;;;;;;;;;;;;;;26.45;38.92;93092.25;5009240;28;7046;-38
2024/03/02 01:30:38;;;;;;;;;;;;;;;26.47;38.52;93084.19;5015155;28;7187;-39
2024/03/02 01:33:05;;;;;;;;;;;;;;;26.48;38.59;93085.66;4996332;28;7040;-40
2024/03/02 01:35:46;;;;;;;;;;;;;;;26.47;39.28;93092.47;5011852;28;9409;-39
2024/03/02 01:38:25;;;;;;;;;;;;;;;26.45;38.61;93087.47;4982208;28;7116;-39
2024/03/02 01:41:02;;;;;;;;;;;;;;;26.45;39.42;93089.50;5010283;28;8502;-39
2024/03/02 01:43:28;;;;;;;;;;;;;;;26.45;38.95;93093.00;5012190;28;7272;-39
2024/03/02 01:45:57;;;;;;;;;;;;;;;26.45;38.69;93103.28;5013121;28;7204;-39
2024/03/02 01:48:24;;;;;;;;;;;;;;;26.44;39.17;93091.53;5013044;28;7887;-40
2024/03/02 01:51:06;;;;;;;;;;;;;;;26.45;38.74;93097.75;5044666;28;8747;-40
2024/03/02 01:53:34;;;;;;;;;;;;;;;26.43;39.18;93090.03;5050740;28;7370;-39
2024/03/02 01:56:02;;;;;;;;;;;;;;;26.44;38.55;93099.06;5052733;28;7255;-39
2024/03/02 01:58:38;;;;;;;;;;;;;;;26.41;38.87;93091.88;5062172;28;9116;-39
2024/03/02 02:01:39;;;;;;;;;;;;;;;26.43;38.78;93095.56;5066648;28;9126;-39
2024/03/02 02:04:06;;;;;;;;;;;;;;;26.42;39.13;93098.88;5009398;28;7121;-39
2024/03/02 02:06:47;;;;;;;;;;;;;;;26.44;38.97;93096.31;5002500;28;9266;-39
2024/03/02 02:09:32;;;;;;;;;;;;;;;26.44;38.79;93096.31;5027028;28;8225;-39
2024/03/02 02:12:15;;;;;;;;;;;;;;;26.42;38.83;93101.63;5030068;28;7433;-39
2024/03/02 02:14:52;;;;;;;;;;;;;;;26.40;38.56;93093.16;5012762;28;9142;-39
2024/03/02 02:17:53;;;;;;;;;;;;;;;26.44;38.99;93093.53;5006338;28;7258;-39
2024/03/02 02:20:27;;;;;;;;;;;;;;;26.43;38.95;93094.81;4993524;28;8693;-39
2024/03/02 02:23:10;;;;;;;;;;;;;;;26.42;38.83;93098.88;4977230;28;6970;-39
2024/03/02 02:25:49;;;;;;;;;;;;;;;26.42;38.61;93088.59;4994159;28;7513;-39
2024/03/02 02:28:18;;;;;;;;;;;;;;;26.41;38.78;93094.63;4974625;28;8742;-39
2024/03/02 02:30:44;;;;;;;;;;;;;;;26.39;38.89;93089.66;4991855;28;9369;-38
2024/03/02 02:33:09;;;;;;;;;;;;;;;26.40;39.21;93088.41;4969475;28;9588;-39
2024/03/02 02:35:39;;;;;;;;;;;;;;;26.38;39.12;93081.97;4975883;28;7085;-41
2024/03/02 02:38:06;;;;;;;;;;;;;;;26.40;39.04;93073.88;5001001;28;9100;-42
2024/03/02 02:40:40;;;;;;;;;;;;;;;26.38;38.85;93076.44;4990244;28;7026;-42
2024/03/02 02:43:06;;;;;;;;;;;;;;;26.42;38.45;93076.81;5005974;28;7220;-41
2024/03/02 02:45:32;;;;;;;;;;;;;;;26.40;38.75;93065.59;4995652;28;9060;-41
2024/03/02 02:48:02;;;;;;;;;;;;;;;26.40;38.95;93069.09;5010678;28;7084;-41
2024/03/02 02:50:30;;;;;;;;;;;;;;;26.42;38.72;93065.78;5036479;28;7053;-41
2024/03/02 02:52:59;;;;;;;;;;;;;;;26.41;39.11;93062.28;5012501;28;8789;-41
2024/03/02 02:55:24;;;;;;;;;;;;;;;26.39;38.88;93064.84;5039486;28;7015;-42
2024/03/02 02:57:52;;;;;;;;;;;;;;;26.36;38.64;93057.66;5068562;28;7234;-42
2024/03/02 03:00:38;;;;;;;;;;;;;;;26.40;38.73;93060.09;5074191;28;7377;-42
2024/03/02 03:03:33;;;;;;;;;;;;;;;26.37;38.95;93058.41;5066172;28;7511;-41
2024/03/02 03:06:13;;;;;;;;;;;;;;;26.38;39.13;93065.41;5079761;28;8288;-41
2024/03/02 03:08:40;;;;;;;;;;;;;;;26.38;38.75;93055.09;5077899;28;7743;-41
2024/03/02 03:11:10;;;;;;;;;;;;;;;26.39;38.99;93055.84;5057388;28;8628;-41
2024/03/02 03:13:38;;;;;;;;;;;;;;;26.37;38.62;93047.38;5056037;28;7018;-42
2024/03/02 03:16:13;;;;;;;;;;;;;;;26.39;39.02;93053.09;5055080;28;9410;-42
2024/03/02 03:18:39;;;;;;;;;;;;;;;26.37;39.10;93052.91;5074067;28;7044;-42
2024/03/02 03:21:05;;;;;;;;;;;;;;;26.41;38.35;93056.03;5056070;28;8804;-41
2024/03/02 03:23:37;;;;;;;;;;;;;;;26.40;38.98;93052.56;5079749;28;6992;-42
2024/03/02 03:26:24;;;;;;;;;;;;;;;26.38;38.80;93048.88;5069205;28;7392;-41
2024/03/02 03:28:49;;;;;;;;;;;;;;;26.37;39.01;93055.66;5055030;28;8699;-42
2024/03/02 03:31:15;;;;;;;;;;;;;;;26.37;38.94;93052.91;5059086;28;6982;-41
2024/03/02 03:33:49;;;;;;;;;;;;;;;26.34;38.54;93043.00;5076478;28;7016;-41
2024/03/02 03:36:23;;;;;;;;;;;;;;;26.38;39.08;93043.34;5064157;28;7366;-42
2024/03/02 03:38:51;;;;;;;;;;;;;;;26.35;38.72;93047.19;5071362;28;8659;-42
2024/03/02 03:41:26;;;;;;;;;;;;;;;26.36;38.48;93052.16;5081528;28;9168;-42
2024/03/02 03:44:07;;;;;;;;;;;;;;;26.37;39.48;93047.38;5063156;28;9035;-37
2024/03/02 03:46:33;;;;;;;;;;;;;;;26.39;38.78;93051.06;5074770;28;7095;-37
2024/03/02 03:49:01;;;;;;;;;;;;;;;26.38;39.13;93051.63;5060298;28;7223;-37
2024/03/02 03:51:27;;;;;;;;;;;;;;;26.35;38.94;93050.69;5081204;28;7830;-37
2024/03/02 03:53:53;;;;;;;;;;;;;;;26.35;38.74;93050.69;5080743;28;7107;-37
2024/03/02 03:56:21;;;;;;;;;;;;;;;26.37;38.80;93048.13;5077840;28;7111;-37
2024/03/02 03:58:46;;;;;;;;;;;;;;;26.37;38.77;93052.91;5081232;28;7110;-37
2024/03/02 04:01:22;;;;;;;;;;;;;;;26.37;38.87;93045.38;5062147;28;6994;-37
2024/03/02 04:04:03;;;;;;;;;;;;;;;26.37;39.04;93041.88;5061296;28;9063;-37
2024/03/02 04:06:48;;;;;;;;;;;;;;;26.38;38.82;93037.84;5062296;28;7033;-37
2024/03/02 04:09:29;;;;;;;;;;;;;;;26.38;38.93;93044.06;5069449;28;9121;-37
2024/03/02 04:11:58;;;;;;;;;;;;;;;26.35;38.88;93042.44;5075116;28;7162;-37
2024/03/02 04:14:37;;;;;;;;;;;;;;;26.35;38.50;93041.69;5059599;28;7030;-37
2024/03/02 04:17:03;;;;;;;;;;;;;;;26.33;38.97;93038.75;5076760;28;8780;-37
2024/03/02 04:19:32;;;;;;;;;;;;;;;26.35;38.38;93044.44;5065037;28;7247;-37
2024/03/02 04:22:11;;;;;;;;;;;;;;;26.37;38.45;93041.88;5086645;28;7010;-37
2024/03/02 04:25:10;;;;;;;;;;;;;;;26.39;38.40;93044.81;5058558;28;7094;-37
2024/03/02 04:27:36;;;;;;;;;;;;;;;26.37;38.55;93041.88;5001872;28;7236;-37
2024/03/02 04:30:03;;;;;;;;;;;;;;;26.35;38.74;93038.94;5003408;28;6928;-37
2024/03/02 04:32:59;;;;;;;;;;;;;;;26.37;38.37;93042.63;4996768;28;8853;-37
2024/03/02 04:35:42;;;;;;;;;;;;;;;26.34;38.54;93049.22;4950061;28;7846;-37
2024/03/02 04:38:24;;;;;;;;;;;;;;;26.32;38.49;93042.81;4947268;28;9073;-38
2024/03/02 04:41:17;;;;;;;;;;;;;;;26.33;38.51;93041.50;4945007;28;9064;-38
2024/03/02 04:44:04;;;;;;;;;;;;;;;26.35;38.51;93038.94;4937775;28;7118;-38
2024/03/02 04:46:43;;;;;;;;;;;;;;;26.35;38.48;93039.69;4936183;29;7256;-37
2024/03/02 04:49:20;;;;;;;;;;;;;;;26.27;38.63;93033.41;4934470;29;9175;-37
2024/03/02 04:51:59;;;;;;;;;;;;;;;26.30;38.98;93037.06;4935236;28;7248;-37
2024/03/02 04:54:25;;;;;;;;;;;;;;;26.30;38.79;93043.34;4945697;28;7376;-55
2024/03/02 04:56:51;;;;;;;;;;;;;;;26.31;39.13;93046.84;4934525;29;7311;-56
2024/03/02 04:59:18;;;;;;;;;;;;;;;26.33;38.91;93055.28;4950221;28;9367;-56
2024/03/02 05:01:45;;;;;;;;;;;;;;;26.33;38.83;93056.03;4939634;28;8783;-56
2024/03/02 05:04:50;;;;;;;;;;;;;;;26.36;38.48;93059.72;4986585;28;7307;-56
2024/03/02 05:07:19;;;;;;;;;;;;;;;26.33;38.87;93060.78;4974867;28;9453;-55
2024/03/02 05:09:55;;;;;;;;;;;;;;;26.31;38.80;93055.84;4972853;28;7107;-56
2024/03/02 05:12:56;;;;;;;;;;;;;;;26.32;38.33;93062.09;5015167;28;7366;-56
2024/03/02 05:15:25;;;;;;;;;;;;;;;26.32;38.69;93062.81;5062192;28;9056;-56
2024/03/02 05:18:10;;;;;;;;;;;;;;;26.32;38.68;93060.06;5052819;28;9627;-56
2024/03/02 05:20:43;;;;;;;;;;;;;;;26.33;38.60;93063.56;5048466;28;9071;-55
2024/03/02 05:23:20;;;;;;;;;;;;;;;26.29;38.50;93060.44;5071315;28;6977;-56
2024/03/02 05:26:00;;;;;;;;;;;;;;;26.29;38.94;93063.19;5073763;28;8774;-56
2024/03/02 05:28:26;;;;;;;;;;;;;;;26.29;38.45;93065.94;5075161;28;7045;-56
2024/03/02 05:30:52;;;;;;;;;;;;;;;26.28;38.80;93058.94;5057677;28;9019;-55
2024/03/02 05:33:22;;;;;;;;;;;;;;;26.24;38.48;93059.31;5069471;28;7014;-56
2024/03/02 05:35:51;;;;;;;;;;;;;;;26.26;39.21;93064.25;5072475;28;6963;-55
2024/03/02 05:38:17;;;;;;;;;;;;;;;26.28;38.82;93072.72;5054478;28;7005;-55
2024/03/02 05:40:49;;;;;;;;;;;;;;;26.23;39.09;93066.09;5037493;28;7845;-56
2024/03/02 05:43:23;;;;;;;;;;;;;;;26.25;39.18;93068.31;5052913;28;7031;-56
2024/03/02 05:45:55;;;;;;;;;;;;;;;26.27;39.11;93068.50;5078159;28;7131;-56
2024/03/02 05:48:31;;;;;;;;;;;;;;;26.26;38.45;93067.03;5074061;28;8750;-55
2024/03/02 05:50:57;;;;;;;;;;;;;;;26.25;39.14;93068.31;5056859;28;7049;-56
2024/03/02 05:53:42;;;;;;;;;;;;;;;26.24;38.45;93062.06;5074194;28;7429;-56
2024/03/02 05:56:24;;;;;;;;;;;;;;;26.23;39.25;93065.38;5058509;28;7124;-56
2024/03/02 05:59:15;;;;;;;;;;;;;;;26.24;39.20;93064.06;5056987;28;8133;-56
2024/03/02 06:02:01;;;;;;;;;;;;;;;26.24;38.97;93070.34;5074622;28;9328;-55
2024/03/02 06:04:26;;;;;;;;;;;;;;;26.27;39.12;93060.97;5052879;28;9011;-42
2024/03/02 06:06:57;;;;;;;;;;;;;;;26.26;38.80;93067.03;5059479;28;7161;-42
2024/03/02 06:09:30;;;;;;;;;;;;;;;26.25;38.57;93062.81;5065174;28;7056;-41
2024/03/02 06:12:06;;;;;;;;;;;;;;;26.24;39.09;93066.84;5079579;28;7039;-42
2024/03/02 06:14:38;;;;;;;;;;;;;;;26.20;39.42;93067.19;5085868;28;7063;-42
2024/03/02 06:17:09;;;;;;;;;;;;;;;26.21;39.08;93068.66;5070410;28;8877;-42
2024/03/02 06:19:40;;;;;;;;;;;;;;;26.25;38.62;93057.28;5051875;28;7865;-41
2024/03/02 06:22:11;;;;;;;;;;;;;;;26.25;39.18;93057.28;5067313;28;7937;-42
2024/03/02 06:24:37;;;;;;;;;;;;;;;26.22;39.21;93067.38;5064252;28;7058;-42
2024/03/02 06:27:04;;;;;;;;;;;;;;;26.23;39.52;93068.84;5067165;28;7011;-42
2024/03/02 06:29:33;;;;;;;;;;;;;;;26.22;39.36;93072.16;5084559;28;8501;-41
2024/03/02 06:32:02;;;;;;;;;;;;;;;26.19;39.22;93071.22;5074478;28;7900;-42
2024/03/02 06:34:32;;;;;;;;;;;;;;;26.19;39.50;93065.00;5056704;28;9002;-41
2024/03/02 06:37:00;;;;;;;;;;;;;;;26.19;39.12;93070.50;5069780;28;9385;-41
2024/03/02 06:39:25;;;;;;;;;;;;;;;26.23;39.34;93077.13;5067646;28;9385;-41
2024/03/02 06:41:56;;;;;;;;;;;;;;;26.22;39.35;93083.91;5066553;28;9459;-42
2024/03/02 06:44:22;;;;;;;;;;;;;;;26.23;39.30;93077.13;5068622;28;9520;-41
2024/03/02 06:46:48;;;;;;;;;;;;;;;26.25;39.34;93073.84;5074729;28;7223;-41
2024/03/02 06:49:22;;;;;;;;;;;;;;;26.27;39.36;93071.25;5058261;28;7229;-41
2024/03/02 06:51:49;;;;;;;;;;;;;;;26.26;38.74;93070.50;5072909;28;7040;-42
2024/03/02 06:54:16;;;;;;;;;;;;;;;26.28;39.15;93064.44;5071184;28;7087;-42
2024/03/02 06:56:43;;;;;;;;;;;;;;;26.31;39.27;93066.88;5060253;28;9728;-41
2024/03/02 06:59:10;;;;;;;;;;;;;;;26.34;38.62;93065.03;5065240;28;7273;-42
2024/03/02 07:01:38;;;;;;;;;;;;;;;26.34;38.66;93060.25;5059773;28;7272;-42
2024/03/02 07:04:06;;;;;;;;;;;;;;;26.31;39.15;93066.13;5050668;28;8703;-43
2024/03/02 07:06:33;;;;;;;;;;;;;;;26.32;38.98;93067.59;5069045;28;8868;-42
2024/03/02 07:09:01;;;;;;;;;;;;;;;26.36;39.03;93065.94;5070991;28;7481;-43
2024/03/02 07:11:31;;;;;;;;;;;;;;;26.37;39.29;93070.19;5058075;28;9311;-41
2024/03/02 07:14:01;;;;;;;;;;;;;;;26.35;39.07;93060.97;5045446;28;7025;-37
2024/03/02 07:16:34;;;;;;;;;;;;;;;26.35;39.53;93066.50;5071001;28;9065;-37
2024/03/02 07:19:03;;;;;;;;;;;;;;;26.39;38.96;93059.34;5053301;28;9520;-37
2024/03/02 07:21:29;;;;;;;;;;;;;;;26.38;39.70;93057.16;5077154;28;7034;-37
2024/03/02 07:24:04;;;;;;;;;;;;;;;26.37;39.19;93061.91;5055463;28;7154;-38
2024/03/02 07:26:31;;;;;;;;;;;;;;;26.39;38.87;93056.59;5045264;28;7470;-37
2024/03/02 07:28:57;;;;;;;;;;;;;;;26.39;39.31;93055.84;5068964;28;9019;-37
2024/03/02 07:31:23;;;;;;;;;;;;;;;26.39;39.27;93044.81;5069890;28;7572;-38
2024/03/02 07:33:49;;;;;;;;;;;;;;;26.41;39.04;93047.75;5071260;28;7021;-38
2024/03/02 07:36:16;;;;;;;;;;;;;;;26.41;39.40;93043.00;5070933;28;9037;-37
2024/03/02 07:38:52;;;;;;;;;;;;;;;26.43;39.14;93043.19;5051974;28;9041;-37
2024/03/02 07:41:19;;;;;;;;;;;;;;;26.44;39.15;93035.66;5081056;28;7972;-37
2024/03/02 07:43:48;;;;;;;;;;;;;;;26.46;38.92;93039.34;5051613;28;7290;-37
2024/03/02 07:46:16;;;;;;;;;;;;;;;26.49;39.21;93026.47;5064038;28;9443;-37
2024/03/02 07:49:09;;;;;;;;;;;;;;;26.53;38.76;93029.59;5045549;28;9206;-37
2024/03/02 07:51:38;;;;;;;;;;;;;;;26.53;38.92;93029.59;5082393;28;7041;-37
2024/03/02 07:54:11;;;;;;;;;;;;;;;26.54;38.65;93028.31;5076644;28;9466;-37
2024/03/02 07:56:38;;;;;;;;;;;;;;;26.54;38.74;93022.78;5058811;28;8810;-37
2024/03/02 07:59:10;;;;;;;;;;;;;;;26.55;39.03;93025.00;5056013;28;7230;-37
2024/03/02 08:01:36;;;;;;;;;;;;;;;26.55;39.22;93025.00;5077405;28;9225;-37
2024/03/02 08:04:07;;;;;;;;;;;;;;;26.57;39.86;93033.47;5073877;28;7013;-37
2024/03/02 08:06:35;;;;;;;;;;;;;;;26.57;38.77;93033.47;5059438;28;7068;-37
2024/03/02 08:09:10;;;;;;;;;;;;;;;26.57;39.45;93027.22;5058901;28;7262;-37
2024/03/02 08:11:54;;;;;;;;;;;;;;;26.57;39.21;93027.22;5053379;28;7022;-37
2024/03/02 08:14:28;;;;;;;;;;;;;;;26.58;39.45;93026.66;5059453;28;9415;-37
2024/03/02 08:16:55;;;;;;;;;;;;;;;26.58;39.58;93034.94;5068002;28;7019;-37
2024/03/02 08:19:27;;;;;;;;;;;;;;;26.56;39.02;93025.72;5058585;28;8670;-36
2024/03/02 08:22:14;;;;;;;;;;;;;;;26.59;39.43;93027.41;5060170;28;8018;-36
2024/03/02 08:24:44;;;;;;;;;;;;;;;26.58;39.11;93021.13;5071703;28;7259;-38
2024/03/02 08:27:12;;;;;;;;;;;;;;;26.57;39.28;93011.41;5041202;28;7103;-38
2024/03/02 08:29:37;;;;;;;;;;;;;;;26.57;39.51;93010.66;5054458;28;7788;-38
2024/03/02 08:32:04;;;;;;;;;;;;;;;26.57;38.69;93007.91;5074525;28;7038;-38
2024/03/02 08:34:30;;;;;;;;;;;;;;;26.59;38.92;93008.09;5062032;28;9560;-38
2024/03/02 08:37:01;;;;;;;;;;;;;;;26.62;39.06;92998.72;5055134;28;8983;-37
2024/03/02 08:39:31;;;;;;;;;;;;;;;26.63;39.29;93000.19;5040939;28;6977;-38
2024/03/02 08:41:58;;;;;;;;;;;;;;;26.64;39.18;93007.19;5056114;28;7232;-38
2024/03/02 08:44:45;;;;;;;;;;;;;;;26.65;39.04;93005.88;5069211;28;8336;-38
2024/03/02 08:47:12;;;;;;;;;;;;;;;26.63;39.43;92994.66;5067783;28;7273;-37
2024/03/02 08:49:40;;;;;;;;;;;;;;;26.61;39.28;92978.69;5055216;28;8136;-38
2024/03/02 08:52:08;;;;;;;;;;;;;;;26.61;39.37;92986.22;5057578;28;7387;-38
2024/03/02 08:54:35;;;;;;;;;;;;;;;26.64;39.48;92985.13;5072641;28;7099;-38
2024/03/02 08:57:09;;;;;;;;;;;;;;;26.64;39.16;92976.84;5055712;28;8998;-39
2024/03/02 08:59:46;;;;;;;;;;;;;;;26.63;39.01;92980.88;5052700;28;7040;-42
2024/03/02 09:02:19;;;;;;;;;;;;;;;26.62;39.37;92973.91;5064685;28;7518;-39
2024/03/02 09:04:46;;;;;;;;;;;;;;;26.66;39.18;92963.97;5056124;28;8615;-42
2024/03/02 09:07:21;;;;;;;;;;;;;;;26.67;39.06;92967.47;5062280;28;7236;-39
2024/03/02 09:09:47;;;;;;;;;;;;;;;26.67;39.46;92970.22;5074526;28;7154;-40
2024/03/02 09:12:24;;;;;;;;;;;;;;;26.68;39.35;92968.94;5063409;28;7700;-40
2024/03/02 09:14:51;;;;;;;;;;;;;;;26.69;39.41;92960.09;5065429;28;9437;-39
2024/03/02 09:17:18;;;;;;;;;;;;;;;26.68;38.95;92955.16;5075792;28;8745;-39
2024/03/02 09:19:44;;;;;;;;;;;;;;;26.67;38.96;92954.41;5057377;28;7674;-40
2024/03/02 09:22:13;;;;;;;;;;;;;;;26.69;38.48;92956.59;5060752;28;7043;-38
2024/03/02 09:24:41;;;;;;;;;;;;;;;26.71;38.70;92965.06;5066622;28;7078;-39
2024/03/02 09:27:09;;;;;;;;;;;;;;;26.67;38.80;92961.94;5053525;28;7097;-39
2024/03/02 09:29:37;;;;;;;;;;;;;;;26.67;38.40;92950.91;5056714;28;9468;-40
2024/03/02 09:32:04;;;;;;;;;;;;;;;26.71;38.61;92948.50;5074439;28;7259;-38
2024/03/02 09:34:29;;;;;;;;;;;;;;;26.70;38.36;92949.81;5057037;28;7199;-37
2024/03/02 09:37:00;;;;;;;;;;;;;;;26.71;38.38;92948.50;5072369;28;7644;-37
2024/03/02 09:39:34;;;;;;;;;;;;;;;26.72;38.27;92941.72;5059894;28;7014;-37
2024/03/02 09:42:04;;;;;;;;;;;;;;;26.71;38.77;92940.97;5049890;28;7835;-37
2024/03/02 09:44:33;;;;;;;;;;;;;;;26.73;38.29;92940.47;5072637;28;7012;-37
2024/03/02 09:47:06;;;;;;;;;;;;;;;26.70;38.52;92949.81;5068896;28;7015;-37
2024/03/02 09:49:37;;;;;;;;;;;;;;;26.74;38.22;92947.44;5072916;28;9049;-36
2024/03/02 09:52:38;;;;;;;;;;;;;;;26.71;38.42;92951.28;5057268;28;7789;-37
2024/03/02 09:55:18;;;;;;;;;;;;;;;26.73;38.73;92951.50;4996330;28;7144;-37
2024/03/02 09:57:48;;;;;;;;;;;;;;;26.71;38.58;92940.97;5004118;28;7671;-37
2024/03/02 10:00:17;;;;;;;;;;;;;;;26.72;38.57;92947.25;4986487;28;9096;-36
2024/03/02 10:02:44;;;;;;;;;;;;;;;26.71;38.59;92949.25;4984926;28;8590;-36
2024/03/02 10:05:11;;;;;;;;;;;;;;;26.72;39.06;92945.22;4975945;28;8117;-37
2024/03/02 10:07:38;;;;;;;;;;;;;;;26.72;38.82;92933.44;4988589;28;9399;-36
2024/03/02 10:10:15;;;;;;;;;;;;;;;26.75;38.62;92938.59;4983351;28;7257;-36
2024/03/02 10:12:42;;;;;;;;;;;;;;;26.76;38.49;92936.59;4988208;28;7156;-37
2024/03/02 10:15:24;;;;;;;;;;;;;;;26.78;38.93;92931.25;4986373;28;7226;-36
2024/03/02 10:17:51;;;;;;;;;;;;;;;26.76;38.95;92929.06;4989574;28;9135;-37
2024/03/02 10:20:32;;;;;;;;;;;;;;;26.78;38.27;92931.25;5011643;28;8788;-36
2024/03/02 10:23:25;;;;;;;;;;;;;;;26.80;38.62;92929.41;4987422;28;7237;-36
2024/03/02 10:25:53;;;;;;;;;;;;;;;26.78;38.64;92937.50;4992538;28;9089;-36
2024/03/02 10:28:19;;;;;;;;;;;;;;;26.78;38.78;92937.50;4979470;28;8796;-36
2024/03/02 10:30:49;;;;;;;;;;;;;;;26.79;38.60;92936.25;4988946;28;7022;-37
2024/03/02 10:33:17;;;;;;;;;;;;;;;26.79;38.52;92932.75;5076124;28;7060;-36
2024/03/02 10:35:47;;;;;;;;;;;;;;;26.78;38.65;92925.75;5052302;28;7123;-36
2024/03/02 10:38:13;;;;;;;;;;;;;;;26.79;38.76;92929.97;5044887;28;8988;-36
2024/03/02 10:40:47;;;;;;;;;;;;;;;26.83;38.75;92930.34;5068890;28;7048;-36
2024/03/02 10:43:16;;;;;;;;;;;;;;;26.82;38.48;92921.31;5055032;28;7347;-38
2024/03/02 10:45:50;;;;;;;;;;;;;;;26.83;38.58;92911.03;5052469;28;7107;-39
2024/03/02 10:48:26;;;;;;;;;;;;;;;26.80;38.58;92903.84;5073098;28;8726;-40
2024/03/02 10:50:53;;;;;;;;;;;;;;;26.82;38.64;92902.00;5084218;28;7018;-40
2024/03/02 10:53:21;;;;;;;;;;;;;;;26.84;38.70;92896.66;5065267;28;7452;-40
2024/03/02 10:56:02;;;;;;;;;;;;;;;26.84;38.54;92907.72;5037609;28;7362;-41
2024/03/02 10:58:33;;;;;;;;;;;;;;;26.83;38.71;92900.72;5071289;28;7308;-40
2024/03/02 11:01:03;;;;;;;;;;;;;;;26.86;38.25;92893.38;5054846;28;7009;-41
2024/03/02 11:03:38;;;;;;;;;;;;;;;26.86;38.32;92898.91;5065948;28;7274;-41
2024/03/02 11:06:08;;;;;;;;;;;;;;;26.86;38.13;92890.63;5051478;28;8219;-41
2024/03/02 11:08:42;;;;;;;;;;;;;;;26.87;38.67;92895.56;5048216;28;7311;-40
2024/03/02 11:11:15;;;;;;;;;;;;;;;26.89;38.63;92895.75;5060127;28;7060;-41
2024/03/02 11:13:54;;;;;;;;;;;;;;;26.88;38.98;92880.47;5074167;28;7205;-41
2024/03/02 11:16:35;;;;;;;;;;;;;;;26.90;38.46;92882.69;5054070;28;8007;-40
2024/03/02 11:19:12;;;;;;;;;;;;;;;26.93;38.68;92892.59;5053814;28;7298;-40
2024/03/02 11:21:49;;;;;;;;;;;;;;;26.93;38.62;92884.31;5052048;28;7337;-39
2024/03/02 11:24:35;;;;;;;;;;;;;;;26.95;38.67;92881.03;5059733;28;9286;-40
2024/03/02 11:27:07;;;;;;;;;;;;;;;26.92;38.41;92875.31;5073430;28;7344;-40
2024/03/02 11:29:36;;;;;;;;;;;;;;;26.92;39.05;92875.31;5059027;28;7589;-40
2024/03/02 11:32:03;;;;;;;;;;;;;;;26.92;38.64;92869.09;5081476;28;7303;-40
2024/03/02 11:34:36;;;;;;;;;;;;;;;26.93;38.77;92859.50;5066346;28;7208;-41
2024/03/02 11:37:14;;;;;;;;;;;;;;;26.96;38.88;92863.91;5074536;28;7261;-41
2024/03/02 11:39:47;;;;;;;;;;;;;;;26.97;38.65;92859.84;5061083;28;7626;-40
2024/03/02 11:42:17;;;;;;;;;;;;;;;26.97;39.05;92867.41;5086018;28;6964;-41
2024/03/02 11:44:47;;;;;;;;;;;;;;;26.99;38.65;92851.75;5056113;28;7275;-40
2024/03/02 11:47:17;;;;;;;;;;;;;;;27.05;38.47;92844.03;5056860;28;9524;-39
2024/03/02 11:49:55;;;;;;;;;;;;;;;27.02;38.87;92847.88;5074246;28;8734;-40
2024/03/02 11:52:34;;;;;;;;;;;;;;;27.03;39.25;92854.16;5062792;28;8667;-40
2024/03/02 11:55:03;;;;;;;;;;;;;;;27.02;39.66;92842.38;5081301;28;7191;-54
2024/03/02 11:57:45;;;;;;;;;;;;;;;27.04;39.85;92837.03;5075662;28;9268;-54
2024/03/02 12:00:21;;;;;;;;;;;;;;;27.06;39.89;92841.97;5060280;28;7315;-54
2024/03/02 12:03:06;;;;;;;;;;;;;;;27.07;40.04;92837.94;5048456;28;11825;-54
2024/03/02 12:05:52;;;;;;;;;;;;;;;27.07;39.80;92830.41;5054914;28;9238;-54
2024/03/02 12:08:27;;;;;;;;;;;;;;;27.10;39.64;92832.03;5062413;28;7464;-54
2024/03/02 12:11:02;;;;;;;;;;;;;;;27.10;39.63;92823.03;5063582;28;9573;-54
2024/03/02 12:13:35;;;;;;;;;;;;;;;27.08;39.91;92820.09;5072945;28;7381;-54
2024/03/02 12:16:00;;;;;;;;;;;;;;;27.10;39.80;92826.50;5056614;28;9195;-54
2024/03/02 12:18:27;;;;;;;;;;;;;;;27.10;39.94;92814.75;5058017;28;6957;-53
2024/03/02 12:21:02;;;;;;;;;;;;;;;27.11;39.79;92814.19;5079122;28;7028;-54
2024/03/02 12:23:34;;;;;;;;;;;;;;;27.13;40.16;92808.84;5080316;28;7024;-54
2024/03/02 12:26:00;;;;;;;;;;;;;;;27.16;39.43;92807.00;5075775;28;7340;-54
2024/03/02 12:28:26;;;;;;;;;;;;;;;27.17;39.28;92800.16;5067429;28;8669;-55
2024/03/02 12:30:52;;;;;;;;;;;;;;;27.16;39.62;92802.22;5057728;28;7231;-53
2024/03/02 12:33:20;;;;;;;;;;;;;;;27.18;39.74;92791.34;5057410;28;7430;-54
2024/03/02 12:35:46;;;;;;;;;;;;;;;27.19;40.06;92797.59;5061797;28;9061;-54
2024/03/02 12:38:12;;;;;;;;;;;;;;;27.18;40.05;92796.88;5069049;28;9044;-54
2024/03/02 12:40:41;;;;;;;;;;;;;;;27.19;40.00;92795.56;5060121;28;7445;-54
2024/03/02 12:43:19;;;;;;;;;;;;;;;27.20;39.85;92793.53;5081569;28;9387;-55
2024/03/02 12:45:45;;;;;;;;;;;;;;;27.19;39.96;92781.75;5053522;28;7334;-55
2024/03/02 12:48:15;;;;;;;;;;;;;;;27.24;39.85;92782.84;5060308;28;7056;-55
2024/03/02 12:51:07;;;;;;;;;;;;;;;27.26;39.89;92778.22;5085421;28;7036;-55
2024/03/02 12:54:05;;;;;;;;;;;;;;;27.26;39.77;92775.47;4972132;28;9192;-55
2024/03/02 12:56:46;;;;;;;;;;;;;;;27.29;39.51;92779.16;4974575;28;7051;-55
2024/03/02 12:59:26;;;;;;;;;;;;;;;27.30;39.42;92773.06;4974113;28;7161;-55
2024/03/02 13:01:57;;;;;;;;;;;;;;;27.31;39.52;92780.06;4963566;28;9750;-55
2024/03/02 13:04:29;;;;;;;;;;;;;;;27.33;39.50;92769.19;4963463;28;9515;-37
2024/03/02 13:06:57;;;;;;;;;;;;;;;27.37;39.06;92764.03;4972153;28;7037;-37
2024/03/02 13:09:55;;;;;;;;;;;;;;;27.44;38.78;92762.50;4955344;28;7363;-37
2024/03/02 13:12:31;;;;;;;;;;;;;;;27.47;39.30;92761.41;4916283;29;7094;-37
2024/03/02 13:15:18;;;;;;;;;;;;;;;27.49;38.94;92765.03;4916931;29;7043;-37
2024/03/02 13:18:00;;;;;;;;;;;;;;;27.49;38.84;92751.25;4909068;29;7363;-37
2024/03/02 13:20:46;;;;;;;;;;;;;;;27.44;38.89;92749.44;4911886;29;7263;-37
2024/03/02 13:23:14;;;;;;;;;;;;;;;27.45;39.08;92745.38;4913587;29;9121;-37
2024/03/02 13:25:49;;;;;;;;;;;;;;;27.45;38.99;92742.63;4906298;29;7070;-37
2024/03/02 13:28:15;;;;;;;;;;;;;;;27.44;38.87;92732.88;4901224;29;6876;-37